createdAt,value
2023-02-06T00:04:50.015Z,16.48
2023-02-06T00:09:50.005Z,16.6
2023-02-06T00:14:50.002Z,17.66
2023-02-06T00:19:50.019Z,17.05
2023-02-06T00:24:49.975Z,17.02
2023-02-06T00:29:49.977Z,16.04
2023-02-06T00:34:49.982Z,14.6
2023-02-06T00:39:50.019Z,15.88
2023-02-06T00:44:50.016Z,15.73
2023-02-06T00:49:49.994Z,14.91
2023-02-06T00:54:50.002Z,14.18
2023-02-06T00:59:50.037Z,14.68
2023-02-06T01:04:49.996Z,15.23
2023-02-06T01:09:50.024Z,14.67
2023-02-06T01:14:50.000Z,14.96
2023-02-06T01:19:49.997Z,15.21
2023-02-06T01:24:49.992Z,14.87
2023-02-06T01:29:50.001Z,14.27
2023-02-06T01:34:49.996Z,15.42
2023-02-06T01:39:50.028Z,15.93
2023-02-06T01:44:50.028Z,15.23
2023-02-06T01:49:50.012Z,15.42
2023-02-06T01:54:50.002Z,15.25
2023-02-06T01:59:50.045Z,14.93
2023-02-06T02:04:50.047Z,15.21
2023-02-06T02:09:50.036Z,15.08
2023-02-06T02:14:50.039Z,14.92
2023-02-06T02:19:50.034Z,14.97
2023-02-06T02:24:50.031Z,14.74
2023-02-06T02:29:50.046Z,14.68
2023-02-06T02:34:50.022Z,14.53
2023-02-06T02:39:50.055Z,14.17
2023-02-06T02:44:50.052Z,14.29
2023-02-06T02:49:50.027Z,14.31
2023-02-06T02:54:50.026Z,14.46
2023-02-06T02:59:50.038Z,14.07
2023-02-06T03:04:50.037Z,15.65
2023-02-06T03:09:50.063Z,14.6
2023-02-06T03:14:50.026Z,14.81
2023-02-06T03:19:50.038Z,14.76
2023-02-06T03:24:50.027Z,15.41
2023-02-06T03:29:50.068Z,16.23
2023-02-06T03:34:50.029Z,16
2023-02-06T03:39:50.071Z,15.65
2023-02-06T03:44:50.033Z,15.52
2023-02-06T03:49:50.057Z,16.48
2023-02-06T03:54:50.088Z,16.83
2023-02-06T03:59:50.050Z,16.72
2023-02-06T04:04:50.075Z,19.74
2023-02-06T04:09:50.050Z,20.6
2023-02-06T04:14:50.062Z,21.8
2023-02-06T04:19:50.090Z,16.71
2023-02-06T04:24:50.055Z,15.23
2023-02-06T04:29:50.119Z,17.27
2023-02-06T04:34:50.063Z,17.69
2023-02-06T04:39:50.071Z,16.32
2023-02-06T04:44:50.085Z,15.83
2023-02-06T04:49:50.061Z,19.72
2023-02-06T04:54:50.095Z,36.22
2023-02-06T04:59:50.077Z,34.19
2023-02-06T05:04:50.065Z,31.32
2023-02-06T05:09:50.061Z,38.67
2023-02-06T05:14:50.061Z,39.26
2023-02-06T05:19:50.079Z,25.85
2023-02-06T05:24:50.074Z,18.82
2023-02-06T05:29:50.068Z,17.56
2023-02-06T05:34:50.060Z,17.53
2023-02-06T05:39:50.101Z,17.19
2023-02-06T05:44:50.104Z,18.99
2023-02-06T05:49:50.104Z,20.68
2023-02-06T05:54:50.075Z,23.29
2023-02-06T05:59:50.118Z,28.21
2023-02-06T06:04:50.178Z,30.45
2023-02-06T06:09:50.114Z,20.89
2023-02-06T06:14:50.087Z,18.99
2023-02-06T06:19:50.122Z,18.13
2023-02-06T06:24:50.119Z,15.95
2023-02-06T06:29:50.092Z,16.35
2023-02-06T06:34:50.093Z,16.75
2023-02-06T06:39:50.132Z,17.56
2023-02-06T06:44:50.091Z,17.83
2023-02-06T06:49:50.092Z,17.35
2023-02-06T06:54:51.982Z,18.05
2023-02-06T06:59:50.111Z,22.1
2023-02-06T07:04:50.133Z,17.8
2023-02-06T07:09:50.138Z,16.81
2023-02-06T07:14:50.106Z,15.3
2023-02-06T07:19:50.101Z,14.82
2023-02-06T07:24:50.135Z,17.54
2023-02-06T07:29:50.142Z,17.26
2023-02-06T07:34:50.136Z,15.75
2023-02-06T07:39:50.120Z,14.22
2023-02-06T07:44:50.129Z,14.29
2023-02-06T07:49:50.135Z,13.9
2023-02-06T07:54:50.146Z,19.14
2023-02-06T07:59:50.161Z,18.03
2023-02-06T08:04:50.115Z,15.45
2023-02-06T08:09:50.151Z,16.26
2023-02-06T08:14:50.144Z,12.65
2023-02-06T08:19:50.130Z,12.98
2023-02-06T08:24:50.129Z,12.27
2023-02-06T08:29:50.144Z,14.4
2023-02-06T08:34:50.168Z,13.15
2023-02-06T08:39:50.141Z,11.98
2023-02-06T08:44:50.124Z,13.35
2023-02-06T08:49:50.127Z,11.44
2023-02-06T08:54:50.151Z,11.45
2023-02-06T08:59:50.143Z,10.75
2023-02-06T09:04:50.176Z,9.58
2023-02-06T09:09:50.170Z,9.77
2023-02-06T09:14:50.137Z,9.11
2023-02-06T09:19:50.166Z,10.36
2023-02-06T09:24:50.141Z,10.68
2023-02-06T09:29:50.141Z,9.03
2023-02-06T09:34:50.142Z,9.52
2023-02-06T09:39:50.170Z,9.63
2023-02-06T09:44:50.146Z,8.89
2023-02-06T09:49:50.159Z,8.75
2023-02-06T09:54:50.150Z,11.03
2023-02-06T09:59:50.181Z,10.82
2023-02-06T10:04:50.186Z,10.16
2023-02-06T10:09:50.151Z,11.43
2023-02-06T10:14:50.187Z,11.17
2023-02-06T10:19:50.191Z,9.23
2023-02-06T10:29:50.162Z,9.1
2023-02-06T10:34:50.167Z,7.89
2023-02-06T10:39:50.175Z,8.47
2023-02-06T10:44:51.483Z,7.11
2023-02-06T10:49:50.166Z,6.84
2023-02-06T10:54:50.200Z,7.9
2023-02-06T10:59:51.358Z,8.36
2023-02-06T11:04:50.226Z,10.66
2023-02-06T11:09:50.176Z,13.81
2023-02-06T11:14:50.193Z,15.92
2023-02-06T11:19:50.186Z,13.8
2023-02-06T11:24:50.183Z,15.43
2023-02-06T11:29:52.028Z,11.72
2023-02-06T11:34:50.199Z,10.93
2023-02-06T11:39:50.198Z,8.69
2023-02-06T11:44:50.213Z,8.51
2023-02-06T11:49:50.200Z,8.07
2023-02-06T11:54:50.191Z,7.21
2023-02-06T11:59:50.232Z,19.07
2023-02-06T12:04:50.233Z,21.74
2023-02-06T12:09:50.234Z,10.42
2023-02-06T12:14:50.208Z,10.06
2023-02-06T12:19:50.248Z,8.81
2023-02-06T12:24:50.205Z,8.91
2023-02-06T12:29:50.239Z,10.09
2023-02-06T12:34:50.209Z,8.61
2023-02-06T12:39:50.217Z,8.5
2023-02-06T12:44:50.208Z,8.02
2023-02-06T12:49:50.213Z,11.75
2023-02-06T12:54:50.244Z,14.4
2023-02-06T12:59:57.800Z,11.17
2023-02-06T13:04:50.213Z,16.55
2023-02-06T13:09:50.265Z,23.54
2023-02-06T13:14:50.249Z,13.46
2023-02-06T13:19:50.258Z,11.74
2023-02-06T13:24:50.248Z,12.14
2023-02-06T13:29:50.227Z,10.51
2023-02-06T13:34:50.226Z,9.92
2023-02-06T13:39:50.241Z,12.07
2023-02-06T13:44:50.270Z,13.38
2023-02-06T13:49:50.267Z,10.72
2023-02-06T13:54:50.238Z,7.94
2023-02-06T13:59:50.283Z,10.7
2023-02-06T14:04:50.244Z,14.4
2023-02-06T14:09:50.283Z,11.25
2023-02-06T14:14:50.261Z,8.74
2023-02-06T14:19:50.267Z,8.72
2023-02-06T14:24:50.248Z,9.52
2023-02-06T14:29:50.249Z,15.73
2023-02-06T14:34:50.236Z,15.79
2023-02-06T14:39:50.270Z,13.45
2023-02-06T14:44:50.236Z,11.1
2023-02-06T14:49:50.297Z,12.15
2023-02-06T14:54:50.278Z,17.34
2023-02-06T14:59:50.287Z,14.37
2023-02-06T15:04:50.298Z,14.47
2023-02-06T15:09:50.261Z,17.69
2023-02-06T15:14:50.278Z,16.38
2023-02-06T15:19:50.267Z,17.17
2023-02-06T15:24:50.273Z,19.69
2023-02-06T15:29:50.280Z,20.65
2023-02-06T15:34:50.273Z,18.86
2023-02-06T15:39:50.306Z,19.3
2023-02-06T15:44:50.288Z,20.94
2023-02-06T15:49:50.274Z,24.28
2023-02-06T15:54:50.289Z,25.85
2023-02-06T15:59:50.280Z,28.76
2023-02-06T16:04:50.268Z,29.14
2023-02-06T16:09:51.195Z,28.88
2023-02-06T16:14:50.294Z,30.28
2023-02-06T16:19:50.293Z,29.18
2023-02-06T16:24:50.279Z,29.99
2023-02-06T16:29:50.297Z,30.71
2023-02-06T16:34:50.315Z,33.65
2023-02-06T16:39:50.290Z,35.43
2023-02-06T16:44:50.313Z,38.34
2023-02-06T16:49:50.281Z,34.72
2023-02-06T16:54:50.287Z,38.89
2023-02-06T16:59:50.321Z,38.02
2023-02-06T17:04:50.396Z,36.72
2023-02-06T17:09:50.304Z,34.19
2023-02-06T17:14:50.320Z,31.92
2023-02-06T17:19:50.328Z,32.02
2023-02-06T17:24:50.302Z,34.57
2023-02-06T17:29:50.375Z,35.1
2023-02-06T17:34:50.292Z,32.84
2023-02-06T17:39:50.321Z,30.81
2023-02-06T17:44:50.308Z,31.57
2023-02-06T17:49:50.332Z,41.17
2023-02-06T17:54:50.304Z,46.6
2023-02-06T17:59:50.352Z,43.51
2023-02-06T18:04:50.303Z,55.14
2023-02-06T18:09:50.321Z,48.83
2023-02-06T18:14:50.304Z,54.7
2023-02-06T18:19:50.328Z,63.66
2023-02-06T18:24:50.324Z,70.77
2023-02-06T18:29:50.778Z,57.53
2023-02-06T18:34:50.335Z,54.89
2023-02-06T18:39:50.344Z,51.22
2023-02-06T18:44:50.334Z,75.87
2023-02-06T18:49:50.346Z,83.3
2023-02-06T18:54:50.322Z,67.49
2023-02-06T18:59:50.320Z,73.14
2023-02-06T19:04:50.331Z,53.28
2023-02-06T19:09:50.331Z,38.48
2023-02-06T19:14:50.319Z,40.41
2023-02-06T19:19:50.329Z,39.49
2023-02-06T19:24:50.355Z,61.73
2023-02-06T19:29:50.338Z,82.07
2023-02-06T19:34:50.328Z,82.13
2023-02-06T19:39:50.328Z,75.81
2023-02-06T19:44:50.320Z,60.68
2023-02-06T19:49:50.332Z,97.34
2023-02-06T19:54:50.339Z,104.6
2023-02-06T19:59:50.340Z,185.96
2023-02-06T20:04:50.330Z,172.08
2023-02-06T20:09:50.360Z,127.85
2023-02-06T20:14:50.334Z,95.41
2023-02-06T20:19:50.375Z,105.37
2023-02-06T20:24:50.338Z,88.99
2023-02-06T20:29:50.354Z,86.74
2023-02-06T20:34:50.371Z,67.96
2023-02-06T20:39:50.341Z,52.14
2023-02-06T20:44:50.336Z,64.68
2023-02-06T20:49:50.342Z,66.61
2023-02-06T20:54:50.355Z,89.59
2023-02-06T20:59:50.353Z,72.77
2023-02-06T21:04:50.344Z,65.22
2023-02-06T21:09:50.341Z,78.16
2023-02-06T21:14:50.351Z,96.11
2023-02-06T21:19:50.357Z,88.31
2023-02-06T21:24:50.351Z,67.27
2023-02-06T21:29:50.362Z,104.01
2023-02-06T21:34:50.375Z,112.62
2023-02-06T21:39:50.367Z,103.95
2023-02-06T21:44:50.357Z,119.62
2023-02-06T21:49:50.361Z,122.3
2023-02-06T21:54:50.377Z,133.96
2023-02-06T21:59:50.422Z,160.52
2023-02-06T22:04:50.371Z,188
2023-02-06T22:09:50.416Z,131.18
2023-02-06T22:14:50.396Z,117.7
2023-02-06T22:19:50.378Z,113.41
2023-02-06T22:24:50.374Z,103.01
2023-02-06T22:29:50.379Z,95.9
2023-02-06T22:34:50.397Z,97.04
2023-02-06T22:39:50.365Z,92.6
2023-02-06T22:44:50.361Z,123.18
2023-02-06T22:49:50.394Z,135.67
2023-02-06T22:54:50.368Z,124.75
2023-02-06T22:59:50.371Z,112.96
2023-02-06T23:04:50.375Z,114.48
2023-02-06T23:09:50.381Z,128.96
2023-02-06T23:14:50.379Z,151.65
2023-02-06T23:19:50.398Z,180.8
2023-02-06T23:24:50.384Z,206.07
2023-02-06T23:29:50.385Z,205.32
2023-02-06T23:34:50.389Z,209.76
2023-02-06T23:39:50.398Z,198.44
2023-02-06T23:44:50.389Z,197.85
2023-02-06T23:49:50.390Z,204.84
2023-02-06T23:54:50.392Z,205.36
2023-02-06T23:59:50.432Z,198.65
